Time;durP1;ratioP1;P1;durP2;ratioP2;P2;SDS_P1;SDS_P2;PMS_P1;PMS_P2;Temp;Humidity;BMP_temperature;BMP_pressure;BME280_temperature;BME280_humidity;BME280_pressure;Samples;Min_cycle;Max_cycle;Signal;HPM_P1;HPM_P2
2022/09/08 00:00:15;;;;;;;6.60;2.53;;;21.90;63.80;;;;;;5096144;28;20024;-62
2022/09/08 00:02:40;;;;;;;6.50;2.97;;;21.90;63.80;;;;;;5095399;28;20035;-62
2022/09/08 00:05:08;;;;;;;6.65;2.75;;;21.80;63.70;;;;;;5094396;28;20130;-62
2022/09/08 00:07:35;;;;;;;8.77;3.08;;;21.90;63.80;;;;;;5090316;28;20111;-62
2022/09/08 00:10:02;;;;;;;7.70;2.58;;;21.80;63.80;;;;;;5096016;28;20024;-61
2022/09/08 00:12:29;;;;;;;7.70;2.83;;;21.90;64.00;;;;;;5095236;28;20016;-61
2022/09/08 00:14:55;;;;;;;8.68;2.78;;;21.90;64.30;;;;;;5095037;28;20027;-61
2022/09/08 00:17:22;;;;;;;7.88;2.80;;;21.80;64.60;;;;;;5073799;28;20091;-62
2022/09/08 00:19:47;;;;;;;6.25;2.70;;;21.80;64.80;;;;;;5078561;28;20090;-61
2022/09/08 00:22:13;;;;;;;7.22;2.60;;;21.80;65.20;;;;;;5095355;28;20047;-61
2022/09/08 00:24:39;;;;;;;6.97;2.88;;;21.80;65.60;;;;;;5073442;28;20029;-61
2022/09/08 00:27:05;;;;;;;7.28;2.90;;;21.70;66.10;;;;;;5086095;28;20066;-61
2022/09/08 00:29:31;;;;;;;8.15;3.25;;;21.70;66.60;;;;;;5096000;28;20025;-62
2022/09/08 00:31:56;;;;;;;6.45;3.03;;;21.70;67.00;;;;;;5095481;28;20455;-61
2022/09/08 00:34:22;;;;;;;9.90;3.67;;;21.70;67.20;;;;;;5095914;28;20084;-61
2022/09/08 00:36:48;;;;;;;9.38;3.58;;;21.70;67.50;;;;;;5077043;28;20123;-62
2022/09/08 00:39:15;;;;;;;7.38;3.33;;;21.60;67.90;;;;;;5089944;28;20020;-62
2022/09/08 00:41:41;;;;;;;9.13;3.90;;;21.60;68.20;;;;;;5094661;28;20086;-61
2022/09/08 00:44:37;;;;;;;7.95;3.78;;;21.60;68.50;;;;;;5095920;28;20035;-61
2022/09/08 00:47:05;;;;;;;7.47;3.33;;;21.60;68.90;;;;;;5077614;28;20055;-61
2022/09/08 00:49:32;;;;;;;7.78;3.58;;;21.60;69.00;;;;;;5088163;28;20089;-61
2022/09/08 00:51:59;;;;;;;6.03;2.67;;;21.60;69.20;;;;;;5094638;28;20024;-61
2022/09/08 00:54:26;;;;;;;8.10;2.97;;;21.50;69.30;;;;;;5076378;28;20058;-61
2022/09/08 00:56:54;;;;;;;7.30;3.10;;;21.50;69.50;;;;;;5094785;28;20024;-61
2022/09/08 00:59:22;;;;;;;7.63;3.25;;;21.50;69.70;;;;;;5077693;28;20457;-61
2022/09/08 01:01:48;;;;;;;7.40;3.00;;;21.50;69.90;;;;;;5093395;28;20038;-61
2022/09/08 01:04:13;;;;;;;7.75;3.00;;;21.50;70.10;;;;;;5077686;28;20028;-61
2022/09/08 01:12:44;;;;;;;7.43;2.65;;;21.40;70.20;;;;;;5092308;28;20032;-61
2022/09/08 01:15:15;;;;;;;6.55;2.28;;;21.40;70.20;;;;;;5076415;28;20055;-62
2022/09/08 01:17:41;;;;;;;5.18;2.20;;;21.40;70.40;;;;;;5076541;28;20048;-61
2022/09/08 01:20:08;;;;;;;7.55;2.72;;;21.40;70.50;;;;;;5075787;28;20020;-61
2022/09/08 01:22:40;;;;;;;6.45;2.38;;;21.40;70.60;;;;;;5093999;28;20035;-61
2022/09/08 01:25:30;;;;;;;5.63;2.47;;;21.40;70.60;;;;;;5093118;28;20373;-61
2022/09/08 01:28:17;;;;;;;5.68;2.25;;;21.40;70.50;;;;;;5076263;28;20352;-61
2022/09/08 01:30:46;;;;;;;7.72;2.50;;;21.40;70.30;;;;;;5094901;28;20032;-61
2022/09/08 01:33:13;;;;;;;5.85;2.03;;;21.40;70.40;;;;;;5093230;28;20020;-61
2022/09/08 01:35:39;;;;;;;6.57;2.35;;;21.40;70.40;;;;;;5072941;28;20024;-62
2022/09/08 01:38:06;;;;;;;8.63;2.20;;;21.40;70.60;;;;;;5092521;28;20039;-61
2022/09/08 01:40:32;;;;;;;5.93;2.28;;;21.40;70.90;;;;;;5093098;28;20322;-62
2022/09/08 01:42:58;;;;;;;5.70;2.45;;;21.40;71.20;;;;;;5092003;28;20062;-61
2022/09/08 01:45:24;;;;;;;6.78;2.50;;;21.30;71.30;;;;;;5070186;28;20089;-61
2022/09/08 01:47:50;;;;;;;5.70;2.30;;;21.30;71.60;;;;;;5072398;28;20055;-61
2022/09/08 01:50:16;;;;;;;9.30;2.33;;;21.30;71.80;;;;;;5077059;28;20028;-62
2022/09/08 01:52:42;;;;;;;7.00;2.33;;;21.30;72.20;;;;;;5076134;28;20036;-61
2022/09/08 01:55:08;;;;;;;5.95;2.53;;;21.20;72.30;;;;;;5091078;28;20016;-61
2022/09/08 01:57:33;;;;;;;6.57;2.58;;;21.20;72.50;;;;;;5095241;28;20457;-61
2022/09/08 01:59:59;;;;;;;7.28;2.88;;;21.20;72.80;;;;;;5075856;28;20020;-61
2022/09/08 02:02:25;;;;;;;8.32;2.70;;;21.20;72.90;;;;;;5075062;28;20115;-62
2022/09/08 02:04:50;;;;;;;9.38;2.70;;;21.10;73.10;;;;;;5075945;28;20035;-61
2022/09/08 02:07:16;;;;;;;7.65;2.90;;;21.10;73.40;;;;;;5081958;28;20032;-61
2022/09/08 02:09:42;;;;;;;10.48;3.40;;;21.00;73.50;;;;;;5094046;28;20074;-61
2022/09/08 02:12:08;;;;;;;8.80;3.00;;;21.00;73.80;;;;;;5081277;28;20351;-62
2022/09/08 02:14:33;;;;;;;7.72;2.75;;;20.90;74.00;;;;;;5093791;28;20008;-61
2022/09/08 02:17:00;;;;;;;10.27;2.92;;;20.90;74.10;;;;;;5094112;28;20135;-61
2022/09/08 02:19:26;;;;;;;7.57;2.92;;;20.90;74.20;;;;;;5094374;28;20421;-61
2022/09/08 02:21:51;;;;;;;8.00;2.83;;;20.90;74.30;;;;;;5086497;28;20110;-61
2022/09/08 02:24:17;;;;;;;6.80;2.60;;;20.90;75.10;;;;;;5093529;28;20032;-62
2022/09/08 02:26:42;;;;;;;6.82;2.28;;;20.90;75.20;;;;;;5091899;28;20341;-61
2022/09/08 02:29:11;;;;;;;8.10;2.60;;;20.80;74.60;;;;;;5076512;28;20020;-61
2022/09/08 02:31:38;;;;;;;7.65;2.50;;;20.90;74.80;;;;;;5075493;28;20028;-61
2022/09/08 02:34:04;;;;;;;7.35;2.28;;;20.80;74.70;;;;;;5088155;28;20456;-61
2022/09/08 02:36:30;;;;;;;7.50;2.80;;;20.80;74.70;;;;;;5080406;28;20035;-62
2022/09/08 02:38:56;;;;;;;9.07;2.95;;;20.70;74.80;;;;;;5094324;28;20115;-61
2022/09/08 02:41:24;;;;;;;7.22;2.40;;;20.80;74.90;;;;;;5085974;28;20141;-62
2022/09/08 02:43:50;;;;;;;7.15;3.05;;;20.70;74.90;;;;;;5093903;28;20031;-62
2022/09/08 02:46:16;;;;;;;7.60;2.65;;;20.70;75.00;;;;;;5089310;28;20059;-62
2022/09/08 02:48:42;;;;;;;6.93;2.95;;;20.70;75.00;;;;;;5088564;28;20037;-61
2022/09/08 02:51:10;;;;;;;7.07;2.70;;;20.70;75.10;;;;;;5087384;28;20027;-62
2022/09/08 02:53:37;;;;;;;7.72;2.72;;;20.70;75.20;;;;;;5080796;28;20024;-61
2022/09/08 02:56:04;;;;;;;7.15;2.75;;;20.60;75.20;;;;;;5067153;28;20040;-61
2022/09/08 02:58:29;;;;;;;8.63;2.85;;;20.60;75.20;;;;;;5075966;28;20388;-61
2022/09/08 03:00:55;;;;;;;7.65;3.10;;;20.60;75.20;;;;;;5070395;28;20025;-61
2022/09/08 03:03:22;;;;;;;8.65;3.20;;;20.60;75.30;;;;;;5075506;28;20020;-61
2022/09/08 03:05:49;;;;;;;9.07;2.80;;;20.60;75.40;;;;;;5097333;28;20070;-62
2022/09/08 03:08:15;;;;;;;7.82;3.05;;;20.60;75.40;;;;;;5079243;28;20042;-61
2022/09/08 03:10:41;;;;;;;10.27;3.00;;;20.50;75.40;;;;;;5095940;28;20038;-61
2022/09/08 03:13:08;;;;;;;7.53;2.75;;;20.50;75.60;;;;;;5094340;28;20063;-61
2022/09/08 03:15:34;;;;;;;6.97;2.70;;;20.50;75.60;;;;;;5087729;28;20082;-62
2022/09/08 03:18:04;;;;;;;7.55;3.20;;;20.50;75.60;;;;;;5084273;28;20032;-61
2022/09/08 03:20:31;;;;;;;7.38;2.67;;;20.50;75.60;;;;;;5084279;28;20115;-62
2022/09/08 03:22:59;;;;;;;8.43;2.83;;;20.50;75.70;;;;;;5069009;28;20159;-61
2022/09/08 03:25:25;;;;;;;7.40;3.00;;;20.50;75.70;;;;;;5080628;28;20455;-61
2022/09/08 03:27:51;;;;;;;7.75;2.85;;;20.50;75.70;;;;;;5088452;28;20107;-61
2022/09/08 03:30:17;;;;;;;5.97;2.90;;;20.50;75.70;;;;;;5070879;28;20472;-61
2022/09/08 03:32:45;;;;;;;7.43;2.90;;;20.50;75.80;;;;;;5095783;28;20020;-61
2022/09/08 03:35:13;;;;;;;8.60;3.00;;;20.50;75.80;;;;;;5097060;28;20028;-61
2022/09/08 03:37:40;;;;;;;7.38;3.00;;;20.50;75.80;;;;;;5092138;28;20088;-62
2022/09/08 03:40:09;;;;;;;8.30;3.22;;;20.50;75.90;;;;;;5078385;28;20345;-61
2022/09/08 03:42:36;;;;;;;7.72;3.00;;;20.40;75.90;;;;;;5078192;28;20449;-61
2022/09/08 03:45:05;;;;;;;7.40;3.45;;;20.40;76.00;;;;;;5090073;28;20028;-62
2022/09/08 03:47:31;;;;;;;7.60;3.15;;;20.40;76.00;;;;;;5090866;28;20028;-61
2022/09/08 03:49:57;;;;;;;8.88;3.30;;;20.40;76.00;;;;;;5068368;28;20035;-61
2022/09/08 03:52:23;;;;;;;9.07;3.40;;;20.40;76.00;;;;;;5087749;28;20326;-62
2022/09/08 03:54:50;;;;;;;8.20;3.30;;;20.40;76.00;;;;;;5090499;28;20353;-61
2022/09/08 03:57:24;;;;;;;9.35;3.03;;;20.40;76.10;;;;;;5081977;28;20040;-62
2022/09/08 03:59:52;;;;;;;8.10;3.22;;;20.40;76.10;;;;;;5078978;28;20044;-62
2022/09/08 04:02:18;;;;;;;8.07;3.08;;;20.40;76.10;;;;;;5086116;28;20020;-62
2022/09/08 04:04:51;;;;;;;7.18;3.22;;;20.40;76.10;;;;;;5092425;28;20040;-61
2022/09/08 04:07:18;;;;;;;6.43;2.78;;;20.40;76.30;;;;;;5089880;28;20032;-61
2022/09/08 04:09:44;;;;;;;6.93;2.92;;;20.40;76.10;;;;;;5084299;28;20025;-62
2022/09/08 04:12:11;;;;;;;8.68;3.00;;;20.40;76.00;;;;;;5086333;28;20020;-61
2022/09/08 04:14:38;;;;;;;11.70;3.70;;;20.40;76.00;;;;;;5086603;28;20063;-61
2022/09/08 04:17:04;;;;;;;8.35;3.10;;;20.40;76.00;;;;;;5087843;28;20047;-62
2022/09/08 04:19:30;;;;;;;9.35;3.15;;;20.40;76.10;;;;;;5068410;28;20429;-62
2022/09/08 04:21:56;;;;;;;7.40;2.65;;;20.40;76.20;;;;;;5088724;28;20047;-62
2022/09/08 04:24:22;;;;;;;8.75;3.15;;;20.40;76.30;;;;;;5089538;28;20028;-62
2022/09/08 04:26:48;;;;;;;7.28;2.53;;;20.40;76.50;;;;;;5089066;28;20456;-62
2022/09/08 04:29:14;;;;;;;9.15;3.17;;;20.40;76.60;;;;;;5091722;28;20093;-62
2022/09/08 04:31:40;;;;;;;7.40;2.83;;;20.30;76.60;;;;;;5066598;28;20028;-62
2022/09/08 04:34:06;;;;;;;6.90;2.83;;;20.30;76.70;;;;;;5073731;28;20388;-62
2022/09/08 04:36:32;;;;;;;5.90;2.70;;;20.30;76.70;;;;;;5089951;28;20035;-62
2022/09/08 04:38:59;;;;;;;8.70;2.95;;;20.30;76.70;;;;;;5071135;28;20020;-62
2022/09/08 04:41:27;;;;;;;6.78;3.13;;;20.30;76.80;;;;;;5086886;28;20035;-62
2022/09/08 04:43:54;;;;;;;6.07;2.97;;;20.30;76.80;;;;;;5086783;28;20131;-62
2022/09/08 04:46:20;;;;;;;5.50;2.70;;;20.30;76.70;;;;;;5087303;28;20028;-62
2022/09/08 04:48:47;;;;;;;7.18;2.80;;;20.30;76.80;;;;;;5089166;28;20023;-62
2022/09/08 04:51:16;;;;;;;7.25;2.90;;;20.20;76.80;;;;;;5088671;28;20043;-62
2022/09/08 04:53:42;;;;;;;8.13;2.97;;;20.20;76.80;;;;;;5087174;28;20125;-62
2022/09/08 04:56:09;;;;;;;8.27;2.67;;;20.20;76.80;;;;;;5087740;28;20027;-62
2022/09/08 04:58:37;;;;;;;7.47;2.72;;;20.20;76.70;;;;;;5085181;28;20038;-62
2022/09/08 05:01:11;;;;;;;7.50;2.83;;;20.10;76.70;;;;;;5089849;28;20055;-62
2022/09/08 05:03:38;;;;;;;6.68;2.55;;;20.10;76.70;;;;;;5069071;28;20032;-62
2022/09/08 05:06:05;;;;;;;5.82;2.72;;;20.10;76.70;;;;;;5086140;28;20453;-62
2022/09/08 05:08:31;;;;;;;5.72;2.40;;;20.10;76.70;;;;;;5088723;28;20038;-62
2022/09/08 05:10:58;;;;;;;9.07;2.80;;;20.10;76.80;;;;;;5088528;28;20021;-62
2022/09/08 05:13:24;;;;;;;7.13;2.85;;;20.10;76.70;;;;;;5064679;28;20036;-62
2022/09/08 05:15:50;;;;;;;7.80;2.92;;;20.10;76.70;;;;;;5063922;28;20186;-62
2022/09/08 05:18:16;;;;;;;7.63;3.20;;;20.10;76.60;;;;;;5067659;28;20108;-62
2022/09/08 05:20:41;;;;;;;6.03;2.95;;;20.10;76.50;;;;;;5063942;28;20345;-63
2022/09/08 05:23:07;;;;;;;7.57;3.08;;;20.20;76.50;;;;;;5072717;28;20028;-63
2022/09/08 05:25:33;;;;;;;7.38;3.55;;;20.20;76.40;;;;;;5063035;28;20036;-62
2022/09/08 05:27:58;;;;;;;11.65;4.47;;;20.10;76.30;;;;;;5064754;28;20047;-63
2022/09/08 05:30:24;;;;;;;7.82;3.58;;;20.20;76.40;;;;;;5057053;28;20146;-63
2022/09/08 05:32:49;;;;;;;9.48;3.67;;;20.10;76.50;;;;;;5066481;28;20024;-62
2022/09/08 05:35:15;;;;;;;7.55;3.88;;;20.10;76.60;;;;;;5064813;28;20107;-62
2022/09/08 05:37:41;;;;;;;11.55;4.00;;;20.10;76.60;;;;;;5066059;28;20051;-63
2022/09/08 05:40:07;;;;;;;7.70;3.40;;;20.10;76.60;;;;;;5066762;28;20047;-62
2022/09/08 05:42:32;;;;;;;11.02;4.38;;;20.10;76.50;;;;;;5062288;28;20021;-63
2022/09/08 05:44:58;;;;;;;7.93;3.35;;;20.10;76.60;;;;;;5065389;28;20112;-62
2022/09/08 05:47:24;;;;;;;9.07;3.38;;;20.10;76.60;;;;;;5060970;28;20037;-62
2022/09/08 05:49:50;;;;;;;9.63;3.72;;;20.10;76.70;;;;;;5063146;28;20151;-62
2022/09/08 05:52:15;;;;;;;10.02;3.42;;;20.00;76.80;;;;;;5064129;28;20054;-61
2022/09/08 05:54:41;;;;;;;8.90;3.97;;;20.00;76.80;;;;;;5066097;28;20032;-62
2022/09/08 05:57:06;;;;;;;9.27;3.78;;;20.00;76.90;;;;;;5065103;28;20394;-62
2022/09/08 05:59:32;;;;;;;10.25;4.18;;;19.90;77.00;;;;;;5063876;28;20035;-61
2022/09/08 06:01:58;;;;;;;8.40;3.70;;;19.90;77.10;;;;;;5065067;28;20385;-62
2022/09/08 06:04:23;;;;;;;8.60;4.28;;;19.90;77.20;;;;;;5066483;28;20040;-62
2022/09/08 06:06:49;;;;;;;7.60;4.25;;;19.80;77.30;;;;;;5067163;28;20029;-62
2022/09/08 06:09:15;;;;;;;10.48;4.70;;;19.90;77.50;;;;;;5068098;28;20017;-61
2022/09/08 06:11:41;;;;;;;9.40;4.43;;;19.90;77.60;;;;;;5056811;28;20441;-62
2022/09/08 06:14:08;;;;;;;9.55;4.75;;;19.80;77.70;;;;;;5064207;28;20044;-61
2022/09/08 06:16:34;;;;;;;8.07;4.22;;;19.80;77.70;;;;;;5065586;28;20152;-62
2022/09/08 06:19:01;;;;;;;9.68;4.68;;;19.80;77.60;;;;;;5064941;28;20035;-62
2022/09/08 06:21:29;;;;;;;8.57;4.40;;;19.80;77.80;;;;;;5063732;28;20145;-61
2022/09/08 06:24:01;;;;;;;9.88;4.65;;;19.80;77.90;;;;;;5062020;28;20050;-61
2022/09/08 06:26:45;;;;;;;8.40;4.40;;;19.80;77.90;;;;;;5049678;28;20078;-62
2022/09/08 06:29:24;;;;;;;10.80;4.38;;;19.80;77.80;;;;;;5063771;28;20043;-62
2022/09/08 06:32:14;;;;;;;8.75;4.32;;;19.80;78.20;;;;;;5066995;28;20028;-62
2022/09/08 06:35:02;;;;;;;10.20;4.03;;;19.80;77.90;;;;;;5050224;28;20079;-62
2022/09/08 06:37:51;;;;;;;9.20;3.85;;;19.80;77.80;;;;;;5059314;28;20075;-63
2022/09/08 06:40:17;;;;;;;9.43;4.43;;;19.90;77.90;;;;;;5056677;28;20116;-61
2022/09/08 06:43:23;;;;;;;8.30;4.25;;;19.80;77.90;;;;;;5070391;28;20111;-62
2022/09/08 06:45:51;;;;;;;7.88;3.80;;;19.80;77.80;;;;;;5083069;28;20075;-61
2022/09/08 06:48:30;;;;;;;9.73;4.50;;;19.80;77.90;;;;;;5083326;28;20029;-61
2022/09/08 06:51:22;;;;;;;13.05;4.57;;;19.80;77.90;;;;;;5082287;28;20036;-61
2022/09/08 06:54:08;;;;;;;8.98;3.92;;;19.80;78.00;;;;;;5068765;28;20043;-61
2022/09/08 06:57:01;;;;;;;10.60;4.40;;;19.80;78.00;;;;;;5063557;28;20036;-61
2022/09/08 07:00:09;;;;;;;9.27;3.78;;;19.80;78.10;;;;;;5067549;28;20055;-61
2022/09/08 07:02:43;;;;;;;7.97;3.53;;;19.80;78.00;;;;;;5067995;28;20428;-61
2022/09/08 07:05:29;;;;;;;8.13;3.90;;;19.80;78.00;;;;;;5067946;28;20119;-60
2022/09/08 07:08:12;;;;;;;6.95;3.67;;;19.80;78.00;;;;;;5065501;28;20037;-61
2022/09/08 07:10:56;;;;;;;6.85;3.67;;;19.80;78.60;;;;;;5066792;28;20020;-61
2022/09/08 07:13:41;;;;;;;9.43;4.07;;;19.80;78.10;;;;;;5068336;28;20064;-61
2022/09/08 07:16:26;;;;;;;7.68;3.85;;;19.80;78.10;;;;;;5074845;28;20052;-61
2022/09/08 07:19:01;;;;;;;9.23;4.38;;;19.80;78.20;;;;;;5086435;28;20362;-61
2022/09/08 07:21:39;;;;;;;8.30;4.20;;;19.90;78.10;;;;;;5071501;28;20028;-61
2022/09/08 07:24:10;;;;;;;7.63;4.40;;;19.80;77.90;;;;;;5087497;28;20120;-60
2022/09/08 07:26:55;;;;;;;;;;;19.80;77.90;;;;;;5066576;28;20043;-61
2022/09/08 07:29:32;;;;;;;8.32;4.20;;;19.80;78.50;;;;;;5086753;28;19916;-61
2022/09/08 07:31:58;;;;;;;7.47;4.20;;;19.80;78.50;;;;;;5085934;28;20028;-62
2022/09/08 07:34:30;;;;;;;7.70;4.35;;;19.80;77.90;;;;;;5089382;28;20060;-61
2022/09/08 07:37:17;;;;;;;8.48;4.78;;;19.80;78.10;;;;;;5088940;28;20625;-61
2022/09/08 07:40:16;;;;;;;8.88;5.28;;;19.80;78.20;;;;;;5088495;28;20028;-61
2022/09/08 07:42:53;;;;;;;8.43;4.40;;;19.90;78.20;;;;;;5087550;28;20032;-61
2022/09/08 07:45:21;;;;;;;9.88;4.68;;;19.80;78.20;;;;;;5086087;28;20077;-62
2022/09/08 07:48:01;;;;;;;7.57;4.45;;;19.90;78.30;;;;;;5088109;28;20353;-61
2022/09/08 07:50:54;;;;;;;7.63;3.92;;;19.90;78.20;;;;;;5089856;28;20024;-62
2022/09/08 07:53:46;;;;;;;7.38;3.63;;;19.90;78.20;;;;;;5083860;28;20032;-61
2022/09/08 07:56:32;;;;;;;7.90;4.03;;;19.90;78.00;;;;;;5087113;28;20027;-61
2022/09/08 07:59:09;;;;;;;7.43;3.90;;;19.90;78.00;;;;;;5085423;28;20109;-60
2022/09/08 08:01:59;;;;;;;8.02;4.43;;;19.90;77.90;;;;;;5087099;28;20481;-62
2022/09/08 08:04:43;;;;;;;8.75;4.32;;;19.90;77.90;;;;;;5083792;28;20036;-61
2022/09/08 08:07:23;;;;;;;9.25;3.90;;;19.90;77.90;;;;;;5087502;28;20038;-62
2022/09/08 08:10:17;;;;;;;7.68;3.97;;;20.00;77.90;;;;;;5060803;28;20035;-62
2022/09/08 08:13:04;;;;;;;7.55;4.10;;;20.00;78.00;;;;;;5065975;28;20032;-62
2022/09/08 08:15:46;;;;;;;8.60;4.50;;;20.00;78.00;;;;;;5091793;28;20563;-62
2022/09/08 08:18:15;;;;;;;8.55;4.57;;;20.00;78.00;;;;;;5087349;28;20340;-62
2022/09/08 08:21:05;;;;;;;8.35;4.85;;;20.00;77.90;;;;;;5092699;28;20071;-62
2022/09/08 08:24:10;;;;;;;7.85;4.13;;;20.00;77.80;;;;;;5092482;28;20022;-62
2022/09/08 08:27:10;;;;;;;8.65;4.40;;;20.00;77.80;;;;;;5069286;28;20401;-62
2022/09/08 08:30:01;;;;;;;9.30;3.90;;;20.10;77.60;;;;;;5061363;28;20047;-62
2022/09/08 08:32:36;;;;;;;8.93;4.22;;;20.20;77.50;;;;;;5093447;28;20027;-62
2022/09/08 08:35:06;;;;;;;7.95;4.70;;;20.20;77.50;;;;;;5076826;28;20020;-62
2022/09/08 08:37:34;;;;;;;8.13;4.28;;;20.30;77.40;;;;;;5078571;28;20043;-62
2022/09/08 08:40:00;;;;;;;10.23;5.55;;;20.40;77.30;;;;;;5088186;28;20118;-62
2022/09/08 08:43:00;;;;;;;8.90;5.20;;;20.40;77.20;;;;;;5088334;28;20024;-61
2022/09/08 08:45:35;;;;;;;8.55;5.35;;;20.50;77.30;;;;;;5014246;28;20046;-62
2022/09/08 08:48:06;;;;;;;10.30;5.60;;;20.50;77.20;;;;;;5000907;28;20033;-62
2022/09/08 08:50:40;;;;;;;;;;;20.60;76.90;;;;;;5024685;28;20040;-62
2022/09/08 08:53:26;;;;;;;8.05;4.78;;;20.70;76.70;;;;;;5017664;28;19910;-62
2022/09/08 08:55:51;;;;;;;8.32;5.05;;;20.80;76.50;;;;;;5014043;28;20401;-62
2022/09/08 08:58:44;;;;;;;7.47;4.75;;;20.80;76.10;;;;;;5017753;28;20051;-62
2022/09/08 09:01:16;;;;;;;9.80;5.60;;;21.00;76.00;;;;;;5020320;28;20046;-62
2022/09/08 09:04:28;;;;;;;9.82;5.40;;;21.10;75.80;;;;;;5022295;28;20447;-62
2022/09/08 09:07:25;;;;;;;10.55;6.28;;;21.10;75.60;;;;;;5030372;28;20371;-64
2022/09/08 09:10:02;;;;;;;8.75;5.68;;;21.10;75.80;;;;;;5030111;28;20073;-62
2022/09/08 09:12:42;;;;;;;9.18;5.63;;;21.00;75.60;;;;;;5029269;28;20473;-62
2022/09/08 09:15:33;;;;;;;10.20;5.45;;;21.00;75.80;;;;;;5026326;28;20463;-62
2022/09/08 09:18:21;;;;;;;9.18;5.30;;;20.90;75.70;;;;;;5008962;28;20160;-62
2022/09/08 09:21:04;;;;;;;9.38;4.75;;;20.80;75.90;;;;;;5030080;28;20186;-62
2022/09/08 09:23:54;;;;;;;8.07;4.72;;;20.80;76.10;;;;;;5065177;28;20044;-62
2022/09/08 09:26:22;;;;;;;8.57;5.32;;;21.00;76.00;;;;;;5090169;28;20672;-62
2022/09/08 09:28:57;;;;;;;9.20;5.05;;;21.00;75.70;;;;;;5087579;28;20063;-62
2022/09/08 09:31:22;;;;;;;8.57;4.75;;;21.10;75.40;;;;;;5094248;28;20028;-62
2022/09/08 09:33:51;;;;;;;8.38;4.75;;;21.10;75.30;;;;;;5092242;28;20034;-62
2022/09/08 09:36:41;;;;;;;9.82;5.03;;;21.00;75.30;;;;;;5085076;28;20024;-62
2022/09/08 09:39:36;;;;;;;7.97;4.25;;;21.00;75.50;;;;;;5094195;28;20020;-62
2022/09/08 09:42:31;;;;;;;8.82;4.75;;;21.00;75.60;;;;;;5049141;28;20398;-62
2022/09/08 09:45:17;;;;;;;8.63;4.60;;;21.00;75.70;;;;;;5090181;28;20028;-62
2022/09/08 09:48:03;;;;;;;8.30;4.15;;;21.00;75.70;;;;;;5087450;28;20024;-62
2022/09/08 09:51:06;;;;;;;8.25;5.03;;;21.20;75.70;;;;;;5073223;28;20036;-63
2022/09/08 09:54:06;;;;;;;9.20;4.55;;;21.30;75.40;;;;;;5081048;28;20055;-63
2022/09/08 09:56:57;;;;;;;7.80;4.25;;;21.30;75.00;;;;;;5091480;28;20340;-62
2022/09/08 09:59:44;;;;;;;9.18;4.13;;;21.30;74.80;;;;;;5094569;28;20044;-64
2022/09/08 10:02:16;;;;;;;8.27;3.65;;;21.30;74.60;;;;;;5041096;28;20429;-62
2022/09/08 10:04:59;;;;;;;9.07;3.65;;;21.40;74.80;;;;;;5087910;28;20040;-62
2022/09/08 10:07:40;;;;;;;6.97;3.65;;;21.40;74.40;;;;;;5093671;28;20039;-63
2022/09/08 10:10:27;;;;;;;9.15;3.58;;;21.40;74.20;;;;;;5075779;28;20131;-62
2022/09/08 10:13:14;;;;;;;8.00;3.78;;;21.40;74.10;;;;;;5097505;28;20024;-62
2022/09/08 10:16:10;;;;;;;7.50;3.55;;;21.40;74.00;;;;;;5094820;28;20024;-62
2022/09/08 10:19:04;;;;;;;6.50;3.70;;;21.40;73.90;;;;;;5076153;28;20028;-62
2022/09/08 10:22:09;;;;;;;8.02;4.20;;;21.40;73.90;;;;;;4999307;28;20149;-64
2022/09/08 10:25:12;;;;;;;8.45;4.03;;;21.50;73.80;;;;;;4988783;28;20061;-63
2022/09/08 10:27:52;;;;;;;7.68;3.95;;;21.60;73.60;;;;;;5029905;28;20061;-63
2022/09/08 10:30:20;;;;;;;7.25;3.72;;;21.90;73.40;;;;;;5016676;28;20408;-62
2022/09/08 10:33:21;;;;;;;7.75;3.88;;;22.10;73.10;;;;;;4997569;28;20053;-62
2022/09/08 10:35:51;;;;;;;7.70;3.90;;;22.20;73.10;;;;;;4957887;28;20081;-62
2022/09/08 10:38:55;;;;;;;6.20;3.80;;;22.10;73.30;;;;;;4957647;28;20114;-62
2022/09/08 10:41:48;;;;;;;8.70;4.13;;;22.20;73.20;;;;;;4952364;28;20516;-62
2022/09/08 10:44:25;;;;;;;11.52;4.93;;;22.20;73.10;;;;;;4956925;29;20395;-63
2022/09/08 10:47:20;;;;;;;7.13;4.45;;;22.20;73.00;;;;;;4957549;28;20141;-62
2022/09/08 10:50:13;;;;;;;7.32;4.32;;;22.30;72.70;;;;;;4949358;28;20043;-62
2022/09/08 10:53:17;;;;;;;6.25;3.90;;;22.40;72.30;;;;;;4956347;28;20070;-62
2022/09/08 10:55:57;;;;;;;7.75;3.90;;;22.50;71.80;;;;;;4958773;28;20133;-62
2022/09/08 10:58:51;;;;;;;7.47;3.35;;;22.40;71.70;;;;;;4997079;28;20041;-63
2022/09/08 11:01:47;;;;;;;6.40;2.88;;;22.30;71.90;;;;;;4990063;28;20022;-61
2022/09/08 11:04:30;;;;;;;6.70;2.58;;;22.20;71.90;;;;;;5015697;28;20100;-62
2022/09/08 11:07:30;;;;;;;7.57;3.05;;;22.20;71.80;;;;;;5015046;28;20540;-62
2022/09/08 11:10:23;;;;;;;6.60;2.58;;;22.10;71.40;;;;;;5049493;28;20079;-62
2022/09/08 11:13:12;;;;;;;5.00;2.47;;;22.50;71.00;;;;;;5093807;28;20050;-62
2022/09/08 11:16:15;;;;;;;7.18;3.13;;;22.80;70.30;;;;;;5077535;28;20032;-62
2022/09/08 11:18:59;;;;;;;7.43;3.13;;;23.00;69.70;;;;;;5078781;28;20037;-62
2022/09/08 11:21:29;;;;;;;8.77;3.10;;;23.10;69.20;;;;;;5086608;28;20032;-62
2022/09/08 11:24:01;;;;;;;5.85;2.70;;;23.20;68.90;;;;;;5079132;28;20093;-63
2022/09/08 11:26:45;;;;;;;6.97;2.70;;;23.10;68.50;;;;;;5092938;28;20459;-62
2022/09/08 11:29:18;;;;;;;5.72;2.88;;;22.90;68.30;;;;;;5096881;28;20042;-62
2022/09/08 11:31:49;;;;;;;7.03;3.05;;;22.70;68.40;;;;;;5072060;28;20368;-62
2022/09/08 11:34:44;;;;;;;7.05;2.75;;;22.60;68.80;;;;;;5092662;28;20332;-61
2022/09/08 11:37:15;;;;;;;7.80;2.55;;;22.60;69.60;;;;;;5091653;28;20078;-62
2022/09/08 11:40:04;;;;;;;10.38;2.97;;;22.50;69.50;;;;;;5095837;28;20492;-62
2022/09/08 11:42:47;;;;;;;5.82;2.60;;;22.50;69.40;;;;;;5092015;28;20131;-62
2022/09/08 11:45:28;;;;;;;6.70;2.05;;;22.60;68.90;;;;;;5056293;28;20434;-62
2022/09/08 11:47:56;;;;;;;7.63;1.95;;;22.90;67.50;;;;;;5095729;28;20061;-62
2022/09/08 11:50:37;;;;;;;5.45;1.92;;;22.90;67.20;;;;;;5060854;28;20486;-62
2022/09/08 11:53:45;;;;;;;5.53;1.98;;;22.80;66.90;;;;;;5077239;28;20443;-62
2022/09/08 11:56:29;;;;;;;4.15;1.48;;;22.70;66.70;;;;;;5090404;28;20031;-61
2022/09/08 11:59:06;;;;;;;5.32;1.77;;;22.70;66.50;;;;;;5086361;28;20032;-62
2022/09/08 12:01:50;;;;;;;5.25;1.52;;;22.90;66.10;;;;;;5063689;28;20036;-63
2022/09/08 12:04:31;;;;;;;7.38;2.13;;;23.20;65.50;;;;;;5095755;28;20039;-61
2022/09/08 12:07:20;;;;;;;7.28;1.88;;;23.40;64.50;;;;;;5094354;28;20395;-63
2022/09/08 12:10:00;;;;;;;6.13;2.08;;;23.60;63.70;;;;;;5047742;28;20137;-62
2022/09/08 12:12:32;;;;;;;4.60;1.85;;;23.70;63.50;;;;;;5091819;28;20103;-61
2022/09/08 12:15:16;;;;;;;6.18;1.40;;;23.70;63.20;;;;;;5091734;28;20344;-62
2022/09/08 12:18:02;;;;;;;6.82;1.92;;;23.80;62.50;;;;;;5096212;28;20048;-61
2022/09/08 12:20:40;;;;;;;6.45;1.58;;;23.90;62.00;;;;;;5091160;28;20044;-62
2022/09/08 12:23:16;;;;;;;5.40;1.67;;;23.90;61.70;;;;;;5055129;28;20032;-62
2022/09/08 12:25:59;;;;;;;5.80;1.60;;;24.00;61.30;;;;;;5095735;28;20457;-62
2022/09/08 12:28:59;;;;;;;6.70;2.00;;;24.10;61.30;;;;;;5078001;28;20024;-62
2022/09/08 12:31:33;;;;;;;4.25;1.60;;;24.10;61.40;;;;;;5082595;28;20336;-62
2022/09/08 12:34:02;;;;;;;7.88;1.77;;;24.10;61.10;;;;;;5095349;28;20043;-62
2022/09/08 12:36:40;;;;;;;8.02;2.15;;;24.20;60.90;;;;;;5092492;28;20036;-62
2022/09/08 12:39:34;;;;;;;3.15;1.30;;;24.10;59.80;;;;;;5095707;28;20108;-62
2022/09/08 12:42:12;;;;;;;5.03;1.60;;;24.10;60.00;;;;;;5079108;28;20051;-62
2022/09/08 12:44:43;;;;;;;5.95;1.80;;;24.00;60.00;;;;;;5084738;28;20089;-62
2022/09/08 12:47:27;;;;;;;6.57;1.50;;;24.10;59.70;;;;;;5083780;28;20074;-62
2022/09/08 12:50:11;;;;;;;4.95;1.50;;;24.20;59.20;;;;;;5082011;28;20089;-63
2022/09/08 12:52:40;;;;;;;7.00;1.80;;;24.20;59.10;;;;;;5065258;28;20056;-62
2022/09/08 12:55:23;;;;;;;6.47;1.52;;;24.20;58.60;;;;;;5072784;28;20027;-62
2022/09/08 12:58:01;;;;;;;4.97;1.58;;;24.20;58.50;;;;;;5093309;28;20033;-62
2022/09/08 13:01:03;;;;;;;6.50;1.70;;;24.20;58.40;;;;;;5077679;28;20043;-62
2022/09/08 13:03:35;;;;;;;4.10;1.30;;;24.10;58.20;;;;;;5092284;28;20135;-62
2022/09/08 13:06:30;;;;;;;5.68;1.48;;;24.10;58.20;;;;;;5076002;28;20043;-63
2022/09/08 13:09:08;;;;;;;6.22;1.38;;;24.00;57.50;;;;;;5071334;28;20032;-62
2022/09/08 13:11:53;;;;;;;4.13;1.13;;;23.90;57.20;;;;;;5070938;28;20025;-62
2022/09/08 13:14:27;;;;;;;5.25;1.48;;;23.90;57.10;;;;;;5095314;28;20028;-62
2022/09/08 13:17:12;;;;;;;6.07;1.40;;;23.90;57.10;;;;;;5060590;28;20056;-62
2022/09/08 13:20:19;;;;;;;6.28;1.42;;;23.90;57.00;;;;;;5091393;28;20142;-62
2022/09/08 13:22:57;;;;;;;5.35;1.30;;;23.80;57.30;;;;;;5088190;28;20028;-62
2022/09/08 13:25:44;;;;;;;5.55;1.55;;;23.70;57.50;;;;;;5093849;28;20042;-62
2022/09/08 13:28:25;;;;;;;6.97;1.90;;;23.70;57.70;;;;;;5094172;28;20153;-62
2022/09/08 13:31:14;;;;;;;6.93;1.60;;;23.70;57.60;;;;;;5069067;28;20070;-62
2022/09/08 13:34:15;;;;;;;5.20;1.42;;;23.70;57.10;;;;;;5077349;28;20111;-62